createdAt,value
2022-09-22T00:01:29.228Z,60.55
2022-09-22T00:03:34.157Z,60.48
2022-09-22T00:05:39.771Z,60.78
2022-09-22T00:07:41.946Z,60.75
2022-09-22T00:09:44.151Z,60.96
2022-09-22T00:11:49.679Z,60.71
2022-09-22T00:13:55.981Z,60.64
2022-09-22T00:15:58.568Z,60.57
2022-09-22T00:18:00.668Z,60.93
2022-09-22T00:20:07.217Z,60.98
2022-09-22T00:22:15.198Z,60.86
2022-09-22T00:24:19.422Z,60.63
2022-09-22T00:26:23.371Z,60.51
2022-09-22T00:28:30.783Z,60.64
2022-09-22T00:30:33.100Z,60.89
2022-09-22T00:32:38.961Z,60.51
2022-09-22T00:34:41.210Z,60.79
2022-09-22T00:36:43.828Z,60.82
2022-09-22T00:38:46.929Z,60.62
2022-09-22T00:40:49.515Z,60.67
2022-09-22T00:42:51.856Z,60.58
2022-09-22T00:44:54.146Z,61.03
2022-09-22T00:47:20.898Z,61.85
2022-09-22T00:49:33.201Z,61.03
2022-09-22T00:51:38.460Z,60.65
2022-09-22T00:53:41.549Z,60.59
2022-09-22T00:55:55.681Z,60.81
2022-09-22T00:57:58.060Z,61.06
2022-09-22T01:00:03.021Z,61.06
2022-09-22T01:02:06.040Z,60.93
2022-09-22T01:04:09.414Z,61.21
2022-09-22T01:06:18.066Z,61.17
2022-09-22T01:08:22.382Z,60.93
2022-09-22T01:10:26.837Z,60.70
2022-09-22T01:12:32.443Z,61.08
2022-09-22T01:14:51.494Z,61.22
2022-09-22T01:17:12.507Z,61.48
2022-09-22T01:19:35.607Z,61.02
2022-09-22T01:21:42.686Z,61.57
2022-09-22T01:24:15.331Z,61.27
2022-09-22T01:26:17.403Z,61.57
2022-09-22T01:28:44.353Z,61.58
2022-09-22T01:30:53.718Z,61.34
2022-09-22T01:33:04.770Z,61.72
2022-09-22T01:35:47.130Z,62.03
2022-09-22T01:38:01.282Z,62.47
2022-09-22T01:40:30.077Z,62.19
2022-09-22T01:42:44.608Z,62.36
2022-09-22T01:45:00.117Z,61.77
2022-09-22T01:47:10.119Z,62.71
2022-09-22T01:49:16.183Z,63.06
2022-09-22T01:51:30.489Z,63.39
2022-09-22T01:53:39.921Z,63.15
2022-09-22T01:55:48.169Z,63.54
2022-09-22T01:58:06.621Z,63.17
2022-09-22T02:00:10.289Z,63.16
2022-09-22T02:02:25.917Z,64.28
2022-09-22T02:04:51.221Z,63.70
2022-09-22T02:06:59.297Z,63.11
2022-09-22T02:09:07.938Z,63.12
2022-09-22T02:11:16.474Z,63.07
2022-09-22T02:13:21.622Z,62.58
2022-09-22T02:15:42.729Z,62.91
2022-09-22T02:17:45.251Z,62.94
2022-09-22T02:19:47.646Z,63.16
2022-09-22T02:21:52.142Z,63.57
2022-09-22T02:23:55.388Z,63.43
2022-09-22T02:25:58.695Z,62.88
2022-09-22T02:28:02.167Z,63.23
2022-09-22T02:30:10.367Z,63.41
2022-09-22T02:32:16.631Z,63.20
2022-09-22T02:34:21.375Z,62.71
2022-09-22T02:36:44.312Z,64.05
2022-09-22T02:39:18.100Z,63.58
2022-09-22T02:41:51.515Z,63.58
2022-09-22T02:44:07.439Z,64.00
2022-09-22T02:46:18.786Z,64.03
2022-09-22T02:48:30.402Z,63.64
2022-09-22T02:50:35.319Z,63.63
2022-09-22T02:52:40.788Z,63.61
2022-09-22T02:54:43.277Z,63.33
2022-09-22T02:56:46.072Z,63.55
2022-09-22T02:58:48.164Z,63.79
2022-09-22T03:00:52.444Z,63.86
2022-09-22T03:02:54.622Z,64.08
2022-09-22T03:04:58.136Z,63.75
2022-09-22T03:07:02.044Z,63.99
2022-09-22T03:09:04.825Z,63.85
2022-09-22T03:11:06.867Z,63.65
2022-09-22T03:13:16.312Z,64.02
2022-09-22T03:15:20.876Z,63.89
2022-09-22T03:17:26.290Z,64.38
2022-09-22T03:19:28.348Z,64.06
2022-09-22T03:21:30.852Z,64.15
2022-09-22T03:23:35.737Z,63.98
2022-09-22T03:25:40.476Z,64.09
2022-09-22T03:27:42.568Z,63.65
2022-09-22T03:29:44.634Z,63.38
2022-09-22T03:31:51.682Z,63.60
2022-09-22T03:33:54.087Z,63.61
2022-09-22T03:35:56.561Z,63.10
2022-09-22T03:38:00.546Z,63.42
2022-09-22T03:40:04.906Z,63.36
2022-09-22T03:42:07.935Z,63.04
2022-09-22T03:44:10.827Z,62.77
2022-09-22T03:46:14.521Z,63.20
2022-09-22T03:48:16.798Z,63.34
2022-09-22T03:50:18.917Z,63.23
2022-09-22T03:52:21.352Z,63.13
2022-09-22T03:54:23.687Z,63.48
2022-09-22T03:56:25.774Z,63.33
2022-09-22T03:58:27.763Z,63.03
2022-09-22T04:00:32.058Z,63.32
2022-09-22T04:02:34.810Z,63.20
2022-09-22T04:04:37.965Z,63.15
2022-09-22T04:06:40.234Z,63.11
2022-09-22T04:08:42.437Z,63.05
2022-09-22T04:10:45.813Z,62.88
2022-09-22T04:12:53.412Z,63.26
2022-09-22T04:14:55.999Z,63.18
2022-09-22T04:17:00.175Z,63.71
2022-09-22T04:19:03.044Z,64.02
2022-09-22T04:21:05.497Z,64.41
2022-09-22T04:23:07.772Z,64.94
2022-09-22T04:25:10.130Z,64.48
2022-09-22T04:27:20.893Z,64.29
2022-09-22T04:29:23.455Z,64.59
2022-09-22T04:31:25.615Z,64.39
2022-09-22T04:33:27.511Z,64.72
2022-09-22T04:36:06.923Z,65.50
2022-09-22T04:38:10.942Z,64.83
2022-09-22T04:40:13.062Z,64.61
2022-09-22T04:42:15.404Z,64.71
2022-09-22T04:44:17.614Z,65.02
2022-09-22T04:46:19.922Z,65.46
2022-09-22T04:48:22.328Z,65.31
2022-09-22T04:50:24.877Z,65.84
2022-09-22T04:52:27.201Z,66.30
2022-09-22T04:54:29.663Z,66.17
2022-09-22T04:56:32.262Z,65.96
2022-09-22T04:58:59.769Z,67.13
2022-09-22T05:01:04.154Z,65.83
2022-09-22T05:03:11.661Z,66.35
2022-09-22T05:05:14.369Z,65.66
2022-09-22T05:07:16.469Z,66.10
2022-09-22T05:09:20.439Z,66.03
2022-09-22T05:11:23.986Z,65.50
2022-09-22T05:13:26.311Z,66.40
2022-09-22T05:15:28.833Z,66.42
2022-09-22T05:17:31.332Z,66.47
2022-09-22T05:19:36.080Z,66.67
2022-09-22T05:21:38.466Z,67.35
2022-09-22T05:23:40.872Z,67.33
2022-09-22T05:25:44.213Z,67.66
2022-09-22T05:27:48.050Z,67.04
2022-09-22T05:29:50.185Z,67.09
2022-09-22T05:31:52.668Z,67.09
2022-09-22T05:33:54.892Z,67.28
2022-09-22T05:35:57.194Z,67.04
2022-09-22T05:37:59.401Z,67.70
2022-09-22T05:40:02.240Z,67.94
2022-09-22T05:42:11.092Z,68.29
2022-09-22T05:44:13.538Z,67.48
2022-09-22T05:46:16.174Z,67.21
2022-09-22T05:48:18.663Z,67.75
2022-09-22T05:50:22.319Z,67.43
2022-09-22T05:52:24.668Z,67.91
2022-09-22T05:54:26.773Z,67.65
2022-09-22T05:56:28.952Z,67.79
2022-09-22T05:58:31.660Z,69.44
2022-09-22T06:00:56.913Z,68.84
2022-09-22T06:02:59.181Z,67.83
2022-09-22T06:05:01.834Z,67.85
2022-09-22T06:07:06.595Z,67.59
2022-09-22T06:09:08.840Z,67.79
2022-09-22T06:11:11.552Z,67.32
2022-09-22T06:13:14.174Z,68.11
2022-09-22T06:15:16.220Z,67.90
2022-09-22T06:17:18.492Z,68.63
2022-09-22T06:19:21.613Z,67.84
2022-09-22T06:21:24.858Z,68.02
2022-09-22T06:23:27.447Z,67.67
2022-09-22T06:25:29.944Z,68.09
2022-09-22T06:27:32.568Z,68.31
2022-09-22T06:29:34.814Z,68.60
2022-09-22T06:31:40.409Z,68.70
2022-09-22T06:33:48.450Z,68.90
2022-09-22T06:35:50.711Z,68.20
2022-09-22T06:37:57.735Z,68.49
2022-09-22T06:40:00.266Z,68.81
2022-09-22T06:42:02.985Z,68.09
2022-09-22T06:44:05.684Z,68.06
2022-09-22T06:46:13.885Z,68.04
2022-09-22T06:48:16.541Z,67.87
2022-09-22T06:50:18.647Z,67.69
2022-09-22T06:52:21.184Z,67.05
2022-09-22T06:54:25.245Z,66.90
2022-09-22T06:56:28.320Z,66.69
2022-09-22T06:58:42.412Z,66.68
2022-09-22T07:00:53.906Z,66.31
2022-09-22T07:03:28.304Z,66.54
2022-09-22T07:05:30.689Z,65.97
2022-09-22T07:07:33.345Z,65.49
2022-09-22T07:09:35.226Z,65.51
2022-09-22T07:11:40.161Z,65.85
2022-09-22T07:13:44.361Z,65.75
2022-09-22T07:15:46.839Z,65.33
2022-09-22T07:17:53.420Z,65.42
2022-09-22T07:19:56.615Z,64.77
2022-09-22T07:21:59.465Z,64.66
2022-09-22T07:24:08.522Z,65.17
2022-09-22T07:26:16.178Z,64.70
2022-09-22T07:28:18.764Z,64.05
2022-09-22T07:30:22.742Z,63.79
2022-09-22T07:32:25.307Z,63.98
2022-09-22T07:34:27.543Z,63.95
2022-09-22T07:36:32.349Z,63.50
2022-09-22T07:38:36.555Z,63.47
2022-09-22T07:40:39.093Z,63.42
2022-09-22T07:42:41.447Z,63.60
2022-09-22T07:45:05.292Z,62.81
2022-09-22T07:47:07.540Z,62.54
2022-09-22T07:49:12.662Z,62.04
2022-09-22T07:51:24.508Z,61.65
2022-09-22T07:53:27.484Z,61.23
2022-09-22T07:55:29.925Z,60.87
2022-09-22T07:57:32.924Z,60.72
2022-09-22T07:59:36.513Z,60.62
2022-09-22T08:01:44.553Z,60.65
2022-09-22T08:03:51.120Z,60.57
2022-09-22T08:06:06.097Z,60.92
2022-09-22T08:08:09.230Z,60.86
2022-09-22T08:10:16.101Z,59.21
2022-09-22T08:12:18.590Z,60.08
2022-09-22T08:14:23.308Z,59.70
2022-09-22T08:16:30.942Z,59.36
2022-09-22T08:18:36.526Z,59.01
2022-09-22T08:20:45.003Z,60.13
2022-09-22T08:22:53.273Z,58.97
2022-09-22T08:24:55.688Z,58.81
2022-09-22T08:26:58.150Z,58.36
2022-09-22T08:29:00.594Z,58.80
2022-09-22T08:31:03.423Z,58.88
2022-09-22T08:33:05.671Z,59.47
2022-09-22T08:35:09.204Z,59.44
2022-09-22T08:37:13.266Z,58.81
2022-09-22T08:39:16.622Z,59.14
2022-09-22T08:41:21.775Z,58.08
2022-09-22T08:43:24.007Z,58.31
2022-09-22T08:45:35.480Z,55.37
2022-09-22T08:48:04.835Z,56.04
2022-09-22T08:50:39.805Z,55.94
2022-09-22T08:52:55.567Z,56.12
2022-09-22T08:54:59.858Z,56.60
2022-09-22T08:57:22.925Z,56.60
2022-09-22T08:59:33.506Z,57.36
2022-09-22T09:01:38.725Z,58.11
2022-09-22T09:04:30.213Z,56.22
2022-09-22T09:07:01.919Z,57.02
2022-09-22T09:09:17.549Z,57.56
2022-09-22T09:11:55.310Z,58.06
2022-09-22T09:14:18.858Z,57.17
2022-09-22T09:16:39.152Z,56.37
2022-09-22T09:18:49.687Z,57.06
2022-09-22T09:20:52.354Z,57.84
2022-09-22T09:22:58.946Z,57.88
2022-09-22T09:25:24.872Z,54.55
2022-09-22T09:27:38.721Z,55.25
2022-09-22T09:30:00.584Z,56.23
2022-09-22T09:32:14.716Z,55.69
2022-09-22T09:34:19.042Z,57.25
2022-09-22T09:36:23.514Z,56.91
2022-09-22T09:38:40.061Z,55.22
2022-09-22T09:40:43.469Z,55.41
2022-09-22T09:42:57.194Z,54.61
2022-09-22T09:45:03.253Z,54.28
2022-09-22T09:47:15.745Z,54.44
2022-09-22T09:49:21.295Z,55.57
2022-09-22T09:51:26.629Z,55.22
2022-09-22T09:53:44.899Z,53.40
2022-09-22T09:55:47.170Z,54.31
2022-09-22T09:58:07.998Z,54.53
2022-09-22T10:00:32.524Z,54.01
2022-09-22T10:02:47.312Z,55.41
2022-09-22T10:04:53.701Z,55.89
2022-09-22T10:07:11.659Z,56.59
2022-09-22T10:09:27.965Z,57.21
2022-09-22T10:11:32.458Z,57.80
2022-09-22T10:13:37.399Z,58.20
2022-09-22T10:15:42.148Z,58.26
2022-09-22T10:17:45.133Z,58.55
2022-09-22T10:19:47.355Z,58.58
2022-09-22T10:21:50.043Z,58.65
2022-09-22T10:24:00.996Z,58.54
2022-09-22T10:26:27.508Z,58.69
2022-09-22T10:28:31.220Z,58.14
2022-09-22T10:30:37.692Z,58.32
2022-09-22T10:32:41.745Z,58.19
2022-09-22T10:34:47.237Z,57.69
2022-09-22T10:36:50.423Z,57.72
2022-09-22T10:38:58.991Z,57.74
2022-09-22T10:41:18.284Z,57.44
2022-09-22T10:43:47.024Z,57.22
2022-09-22T10:46:16.684Z,57.33
2022-09-22T10:48:41.328Z,57.88
2022-09-22T10:51:10.122Z,57.60
2022-09-22T10:53:31.726Z,57.73
2022-09-22T10:55:40.940Z,58.43
2022-09-22T10:58:23.846Z,58.63
2022-09-22T11:00:28.332Z,58.39
2022-09-22T11:02:59.478Z,58.59
2022-09-22T11:05:46.369Z,58.81
2022-09-22T11:08:31.269Z,58.50
2022-09-22T11:10:54.743Z,58.30
2022-09-22T11:13:34.524Z,58.71
2022-09-22T11:15:42.977Z,58.65
2022-09-22T11:18:13.699Z,58.47
2022-09-22T11:20:36.303Z,58.26
2022-09-22T11:22:53.789Z,57.80
2022-09-22T11:24:59.007Z,57.56
2022-09-22T11:27:01.845Z,57.71
2022-09-22T11:29:37.775Z,57.10
2022-09-22T11:32:17.731Z,57.19
2022-09-22T11:34:44.218Z,57.40
2022-09-22T11:36:51.298Z,57.63
2022-09-22T11:39:21.178Z,57.70
2022-09-22T11:41:30.000Z,57.67
2022-09-22T11:44:00.079Z,58.46
2022-09-22T11:46:20.368Z,59.14
2022-09-22T11:49:07.553Z,58.31
2022-09-22T11:51:41.303Z,57.67
2022-09-22T11:54:04.700Z,57.38
2022-09-22T11:56:33.252Z,57.43
2022-09-22T11:58:41.326Z,57.64
2022-09-22T12:00:55.562Z,57.72
2022-09-22T12:03:03.692Z,58.14
2022-09-22T12:05:19.859Z,57.74
2022-09-22T12:07:34.050Z,57.40
2022-09-22T12:10:05.684Z,56.94
2022-09-22T12:12:15.042Z,56.76
2022-09-22T12:14:18.703Z,56.99
2022-09-22T12:16:39.576Z,56.54
2022-09-22T12:18:56.505Z,56.22
2022-09-22T12:21:04.786Z,56.47
2022-09-22T12:23:39.016Z,57.03
2022-09-22T12:25:48.677Z,56.71
2022-09-22T12:27:56.597Z,56.09
2022-09-22T12:30:13.426Z,56.73
2022-09-22T12:32:33.584Z,56.59
2022-09-22T12:34:40.196Z,56.81
2022-09-22T12:36:43.232Z,56.93
2022-09-22T12:38:48.726Z,56.91
2022-09-22T12:40:55.190Z,56.72
2022-09-22T12:42:59.590Z,56.59
2022-09-22T12:45:35.795Z,55.91
2022-09-22T12:47:42.897Z,56.42
2022-09-22T12:49:53.964Z,56.12
2022-09-22T12:51:56.959Z,56.05
2022-09-22T12:54:24.562Z,56.35
2022-09-22T12:56:47.454Z,55.75
2022-09-22T12:58:50.161Z,56.17
2022-09-22T13:00:57.106Z,55.49
2022-09-22T13:03:02.261Z,55.35
2022-09-22T13:05:06.158Z,55.09
2022-09-22T13:07:37.795Z,53.98
2022-09-22T13:09:40.144Z,54.10
2022-09-22T13:12:45.178Z,52.92
2022-09-22T13:15:20.930Z,52.23
2022-09-22T13:17:41.805Z,52.23
2022-09-22T13:19:56.133Z,52.14
2022-09-22T13:22:15.592Z,52.23
2022-09-22T13:24:23.663Z,53.18
2022-09-22T13:26:36.247Z,53.68
2022-09-22T13:28:38.966Z,53.88
2022-09-22T13:30:43.129Z,53.80
2022-09-22T13:32:50.648Z,53.87
2022-09-22T13:34:53.402Z,53.60
2022-09-22T13:37:06.185Z,53.46
2022-09-22T13:39:14.216Z,53.34
2022-09-22T13:41:41.301Z,52.59
2022-09-22T13:43:49.204Z,52.12
2022-09-22T13:45:54.326Z,53.14
2022-09-22T13:48:09.414Z,53.02
2022-09-22T13:50:22.434Z,51.97
2022-09-22T13:52:28.537Z,53.07
2022-09-22T13:54:35.380Z,53.16
2022-09-22T13:56:38.387Z,53.96
2022-09-22T13:58:44.394Z,53.08
2022-09-22T14:01:13.164Z,51.67
2022-09-22T14:03:20.451Z,52.26
2022-09-22T14:05:28.384Z,51.84
2022-09-22T14:07:38.357Z,52.10
2022-09-22T14:09:45.510Z,52.51
2022-09-22T14:11:48.210Z,52.10
2022-09-22T14:13:53.304Z,52.37
2022-09-22T14:15:55.592Z,52.76
2022-09-22T14:17:59.125Z,52.35
2022-09-22T14:20:05.694Z,52.53
2022-09-22T14:22:15.894Z,51.56
2022-09-22T14:24:18.898Z,52.68
2022-09-22T14:26:45.859Z,51.78
2022-09-22T14:28:51.845Z,52.40
2022-09-22T14:30:54.635Z,51.93
2022-09-22T14:33:03.749Z,51.60
2022-09-22T14:35:09.734Z,52.20
2022-09-22T14:37:23.142Z,51.47
2022-09-22T14:39:34.546Z,52.38
2022-09-22T14:41:38.281Z,52.31
2022-09-22T14:43:42.549Z,52.27
2022-09-22T14:46:00.759Z,52.47
2022-09-22T14:48:10.912Z,52.67
2022-09-22T14:50:20.662Z,52.73
2022-09-22T14:52:27.931Z,52.62
2022-09-22T14:54:32.856Z,51.66
2022-09-22T14:56:36.883Z,52.02
2022-09-22T14:58:44.585Z,51.61
2022-09-22T15:01:18.375Z,51.12
2022-09-22T15:03:32.830Z,51.81
2022-09-22T15:05:35.227Z,51.97
2022-09-22T15:07:40.571Z,52.28
2022-09-22T15:09:43.243Z,52.16
2022-09-22T15:11:57.473Z,52.25
2022-09-22T15:14:00.124Z,52.37
2022-09-22T15:16:02.549Z,52.16
2022-09-22T15:18:13.954Z,51.54
2022-09-22T15:20:16.739Z,52.08
2022-09-22T15:22:19.112Z,52.37
2022-09-22T15:24:27.394Z,52.27
2022-09-22T15:26:33.041Z,51.94
2022-09-22T15:28:38.833Z,52.13
2022-09-22T15:30:41.811Z,52.57
2022-09-22T15:32:46.897Z,52.25
2022-09-22T15:34:49.206Z,52.05
2022-09-22T15:36:56.193Z,51.84
2022-09-22T15:39:08.083Z,51.38
2022-09-22T15:41:12.461Z,51.85
2022-09-22T15:43:20.512Z,51.98
2022-09-22T15:45:23.185Z,52.03
2022-09-22T15:47:26.469Z,52.27
2022-09-22T15:49:29.686Z,52.34
2022-09-22T15:51:33.179Z,51.79
2022-09-22T15:53:39.029Z,51.99
2022-09-22T15:55:48.236Z,51.61
2022-09-22T15:57:55.186Z,51.69
2022-09-22T15:59:57.733Z,51.29
2022-09-22T16:02:00.645Z,51.09
2022-09-22T16:04:04.548Z,50.90
2022-09-22T16:06:11.152Z,50.78
2022-09-22T16:08:16.894Z,50.64
2022-09-22T16:10:25.723Z,50.82
2022-09-22T16:12:28.475Z,50.67
2022-09-22T16:14:30.636Z,51.10
2022-09-22T16:16:38.448Z,51.30
2022-09-22T16:18:42.129Z,51.19
2022-09-22T16:20:46.030Z,51.51
2022-09-22T16:22:48.267Z,51.15
2022-09-22T16:24:50.375Z,51.07
2022-09-22T16:26:52.574Z,51.24
2022-09-22T16:28:58.307Z,51.45
2022-09-22T16:31:04.691Z,51.07
2022-09-22T16:33:07.337Z,51.32
2022-09-22T16:35:10.045Z,51.54
2022-09-22T16:37:12.489Z,51.38
2022-09-22T16:39:15.807Z,51.65
2022-09-22T16:41:26.875Z,51.13
2022-09-22T16:43:29.252Z,51.47
2022-09-22T16:45:49.952Z,51.08
2022-09-22T16:47:52.472Z,51.16
2022-09-22T16:49:56.015Z,51.48
2022-09-22T16:51:58.530Z,51.97
2022-09-22T16:54:06.676Z,51.57
2022-09-22T16:56:08.888Z,51.49
2022-09-22T16:58:13.516Z,51.68
2022-09-22T17:00:16.273Z,51.64
2022-09-22T17:02:19.112Z,51.96
2022-09-22T17:04:21.388Z,51.59
2022-09-22T17:06:25.980Z,51.61
2022-09-22T17:08:28.872Z,51.88
2022-09-22T17:10:34.369Z,51.78
2022-09-22T17:12:37.389Z,51.64
2022-09-22T17:14:43.978Z,51.77
2022-09-22T17:16:50.990Z,51.83
2022-09-22T17:18:54.991Z,51.49
2022-09-22T17:20:58.293Z,51.56
2022-09-22T17:23:00.461Z,51.36
2022-09-22T17:25:02.587Z,50.98
2022-09-22T17:27:05.808Z,51.49
2022-09-22T17:29:08.608Z,51.39
2022-09-22T17:31:11.371Z,51.46
2022-09-22T17:33:13.533Z,51.28
2022-09-22T17:35:16.294Z,51.83
2022-09-22T17:37:19.930Z,51.68
2022-09-22T17:39:23.463Z,51.48
2022-09-22T17:41:28.716Z,52.02
2022-09-22T17:43:30.771Z,51.89
2022-09-22T17:45:33.367Z,51.65
2022-09-22T17:47:54.365Z,51.49
2022-09-22T17:50:14.890Z,51.98
2022-09-22T17:52:29.562Z,51.71
2022-09-22T17:55:01.116Z,51.74
2022-09-22T17:57:03.711Z,51.98
2022-09-22T17:59:06.253Z,51.64
2022-09-22T18:01:08.390Z,52.67
2022-09-22T18:03:10.614Z,52.98
2022-09-22T18:05:16.708Z,53.45
2022-09-22T18:07:22.384Z,52.89
2022-09-22T18:09:25.200Z,53.04
2022-09-22T18:11:28.340Z,53.68
2022-09-22T18:13:30.690Z,54.21
2022-09-22T18:15:33.099Z,54.45
2022-09-22T18:17:43.192Z,54.59
2022-09-22T18:19:47.271Z,55.11
2022-09-22T18:21:49.599Z,55.34
2022-09-22T18:23:52.019Z,55.74
2022-09-22T18:25:54.280Z,55.21
2022-09-22T18:27:57.609Z,55.20
2022-09-22T18:30:00.426Z,55.64
2022-09-22T18:32:03.909Z,55.74
2022-09-22T18:34:09.174Z,55.35
2022-09-22T18:36:12.173Z,55.61
2022-09-22T18:38:14.852Z,55.26
2022-09-22T18:40:17.564Z,54.55
2022-09-22T18:42:24.492Z,54.67
2022-09-22T18:44:29.278Z,54.39
2022-09-22T18:46:37.031Z,54.41
2022-09-22T18:48:41.751Z,54.44
2022-09-22T18:50:44.524Z,54.16
2022-09-22T18:52:47.873Z,54.02
2022-09-22T18:54:53.457Z,54.05
2022-09-22T18:56:57.144Z,54.13
2022-09-22T18:58:59.643Z,54.19
2022-09-22T19:01:02.266Z,53.88
2022-09-22T19:03:06.793Z,53.79
2022-09-22T19:05:09.709Z,53.82
2022-09-22T19:07:30.795Z,53.63
2022-09-22T19:09:35.267Z,53.47
2022-09-22T19:11:38.059Z,53.55
2022-09-22T19:13:40.325Z,54.15
2022-09-22T19:15:43.824Z,53.54
2022-09-22T19:17:49.999Z,53.89
2022-09-22T19:19:52.329Z,54.37
2022-09-22T19:21:54.685Z,53.75
2022-09-22T19:23:58.056Z,54.01
2022-09-22T19:26:00.478Z,54.29
2022-09-22T19:28:02.862Z,54.20
2022-09-22T19:30:05.894Z,54.32
2022-09-22T19:32:08.292Z,54.16
2022-09-22T19:34:11.842Z,54.24
2022-09-22T19:36:13.949Z,54.20
2022-09-22T19:38:18.115Z,54.31
2022-09-22T19:40:25.040Z,54.21
2022-09-22T19:42:28.600Z,54.34
2022-09-22T19:44:32.545Z,54.12
2022-09-22T19:46:35.797Z,54.03
2022-09-22T19:48:41.115Z,54.29
2022-09-22T19:50:43.490Z,54.31
2022-09-22T19:52:45.989Z,54.28
2022-09-22T19:54:48.924Z,54.30
2022-09-22T19:56:51.090Z,54.10
2022-09-22T19:58:53.293Z,54.47
2022-09-22T20:00:58.361Z,54.29
2022-09-22T20:03:01.139Z,54.55
2022-09-22T20:05:04.894Z,54.35
2022-09-22T20:07:11.142Z,54.66
2022-09-22T20:09:14.124Z,55.07
2022-09-22T20:11:26.606Z,54.73
2022-09-22T20:13:47.916Z,54.21
2022-09-22T20:15:50.231Z,54.94
2022-09-22T20:17:52.591Z,54.74
2022-09-22T20:19:55.546Z,54.43
2022-09-22T20:22:19.804Z,54.67
2022-09-22T20:24:23.319Z,54.83
2022-09-22T20:26:25.379Z,54.16
2022-09-22T20:28:27.734Z,54.52
2022-09-22T20:30:29.817Z,54.61
2022-09-22T20:32:34.884Z,54.42
2022-09-22T20:34:38.392Z,54.65
2022-09-22T20:36:42.425Z,54.79
2022-09-22T20:38:44.813Z,54.71
2022-09-22T20:40:48.435Z,54.90
2022-09-22T20:42:53.654Z,54.99
2022-09-22T20:44:55.739Z,55.09
2022-09-22T20:46:58.363Z,55.44
2022-09-22T20:49:01.432Z,55.36
2022-09-22T20:51:03.885Z,55.94
2022-09-22T20:53:06.281Z,56.08
2022-09-22T20:55:10.529Z,55.67
2022-09-22T20:57:15.617Z,55.63
2022-09-22T20:59:18.244Z,56.44
2022-09-22T21:01:20.846Z,55.58
2022-09-22T21:03:26.182Z,55.67
2022-09-22T21:05:29.111Z,56.19
2022-09-22T21:07:32.723Z,55.82
2022-09-22T21:09:53.166Z,55.71
2022-09-22T21:11:56.804Z,55.97
2022-09-22T21:14:03.223Z,55.73
2022-09-22T21:16:05.795Z,55.72
2022-09-22T21:18:08.246Z,56.61
2022-09-22T21:20:10.747Z,56.88
2022-09-22T21:22:13.641Z,57.02
2022-09-22T21:24:16.586Z,57.39
2022-09-22T21:26:21.107Z,56.73
2022-09-22T21:28:23.944Z,57.22
2022-09-22T21:30:28.931Z,57.17
2022-09-22T21:32:31.647Z,57.13
2022-09-22T21:34:36.716Z,57.37
2022-09-22T21:36:39.197Z,57.17
2022-09-22T21:38:49.393Z,56.76
2022-09-22T21:41:03.999Z,57.44
2022-09-22T21:43:06.267Z,57.48
2022-09-22T21:45:09.206Z,57.56
2022-09-22T21:47:11.748Z,57.26
2022-09-22T21:49:14.588Z,57.34
2022-09-22T21:51:22.027Z,57.62
2022-09-22T21:53:25.264Z,57.10
2022-09-22T21:55:27.633Z,57.19
2022-09-22T21:57:29.917Z,57.24
2022-09-22T21:59:32.194Z,56.92
2022-09-22T22:01:37.908Z,57.34
2022-09-22T22:03:43.797Z,57.24
2022-09-22T22:05:46.326Z,57.16
2022-09-22T22:07:48.863Z,57.21
2022-09-22T22:09:51.062Z,57.08
2022-09-22T22:11:59.483Z,57.10
2022-09-22T22:14:03.792Z,57.00
2022-09-22T22:16:08.465Z,57.16
2022-09-22T22:18:10.809Z,57.10
2022-09-22T22:20:12.988Z,57.36
2022-09-22T22:22:15.540Z,57.33
2022-09-22T22:24:35.921Z,57.71
2022-09-22T22:26:38.753Z,57.31
2022-09-22T22:28:42.448Z,57.91
2022-09-22T22:30:44.837Z,57.69
2022-09-22T22:32:46.975Z,57.87
2022-09-22T22:34:50.051Z,57.97
2022-09-22T22:36:52.965Z,57.57
2022-09-22T22:38:55.142Z,58.17
2022-09-22T22:41:02.311Z,58.11
2022-09-22T22:43:04.274Z,57.91
2022-09-22T22:45:06.751Z,57.95
2022-09-22T22:47:09.216Z,57.80
2022-09-22T22:49:11.790Z,57.93
2022-09-22T22:51:16.381Z,58.29
2022-09-22T22:53:21.422Z,57.90
2022-09-22T22:55:23.524Z,57.98
2022-09-22T22:57:26.818Z,58.25
2022-09-22T22:59:29.011Z,58.52
2022-09-22T23:01:32.023Z,58.00
2022-09-22T23:03:34.179Z,57.85
2022-09-22T23:05:40.818Z,58.18
2022-09-22T23:07:45.863Z,58.16
2022-09-22T23:09:47.977Z,58.19
2022-09-22T23:11:54.087Z,58.10
2022-09-22T23:14:03.222Z,58.49
2022-09-22T23:16:10.158Z,58.98
2022-09-22T23:18:12.371Z,58.73
2022-09-22T23:20:15.727Z,58.14
2022-09-22T23:22:17.758Z,58.19
2022-09-22T23:24:20.435Z,58.47
2022-09-22T23:26:24.178Z,58.56
2022-09-22T23:28:31.061Z,58.69
2022-09-22T23:30:33.842Z,58.64
2022-09-22T23:32:36.090Z,58.85
2022-09-22T23:34:38.298Z,58.56
2022-09-22T23:36:40.647Z,58.43
2022-09-22T23:38:43.158Z,58.27
2022-09-22T23:40:46.094Z,58.71
2022-09-22T23:42:50.804Z,58.62
2022-09-22T23:44:53.162Z,58.43
2022-09-22T23:46:55.260Z,58.44
2022-09-22T23:48:58.315Z,59.08
2022-09-22T23:51:01.865Z,58.72
2022-09-22T23:53:04.015Z,58.96
2022-09-22T23:55:06.277Z,59.00
2022-09-22T23:57:08.381Z,58.77
2022-09-22T23:59:10.663Z,59.14
